createdAt,value
2018-06-22T00:02:11.180Z,86.40
2018-06-22T00:04:39.612Z,87.00
2018-06-22T00:07:08.084Z,86.80
2018-06-22T00:09:36.466Z,86.80
2018-06-22T00:12:04.973Z,87.10
2018-06-22T00:14:33.328Z,86.60
2018-06-22T00:17:01.733Z,86.30
2018-06-22T00:19:30.106Z,86.10
2018-06-22T00:21:58.513Z,86.00
2018-06-22T00:24:26.919Z,86.00
2018-06-22T00:26:55.297Z,86.00
2018-06-22T00:29:23.763Z,85.90
2018-06-22T00:31:52.162Z,86.00
2018-06-22T00:34:20.542Z,85.10
2018-06-22T00:36:48.922Z,85.10
2018-06-22T00:39:17.294Z,85.10
2018-06-22T00:41:45.749Z,85.00
2018-06-22T00:44:14.095Z,84.70
2018-06-22T00:46:42.462Z,84.40
2018-06-22T00:49:10.884Z,84.60
2018-06-22T00:51:39.287Z,84.90
2018-06-22T00:54:12.858Z,85.00
2018-06-22T00:56:41.267Z,85.10
2018-06-22T00:59:09.896Z,84.90
2018-06-22T01:01:38.311Z,84.70
2018-06-22T01:04:07.172Z,84.70
2018-06-22T01:06:35.656Z,84.90
2018-06-22T01:09:05.748Z,85.30
2018-06-22T01:11:34.138Z,85.40
2018-06-22T01:14:02.554Z,85.60
2018-06-22T01:16:30.976Z,85.30
2018-06-22T01:19:00.061Z,86.40
2018-06-22T01:21:28.509Z,85.20
2018-06-22T01:23:56.964Z,85.60
2018-06-22T01:26:26.781Z,85.40
2018-06-22T01:30:00.361Z,85.20
2018-06-22T01:32:28.733Z,85.40
2018-06-22T01:34:57.148Z,85.00
2018-06-22T01:37:25.564Z,85.50
2018-06-22T01:39:53.984Z,85.80
2018-06-22T01:42:22.410Z,85.30
2018-06-22T01:44:50.882Z,86.20
2018-06-22T01:47:19.330Z,86.20
2018-06-22T01:49:47.744Z,86.00
2018-06-22T01:52:16.161Z,85.80
2018-06-22T01:54:44.651Z,86.40
2018-06-22T01:57:17.104Z,86.40
2018-06-22T01:59:45.562Z,86.30
2018-06-22T02:02:13.963Z,86.70
2018-06-22T02:04:42.339Z,87.00
2018-06-22T02:07:10.798Z,86.50
2018-06-22T02:09:39.185Z,86.40
2018-06-22T02:12:07.637Z,86.40
2018-06-22T02:14:36.078Z,85.80
2018-06-22T02:17:04.587Z,86.20
2018-06-22T02:19:33.021Z,86.10
2018-06-22T02:22:01.441Z,87.40
2018-06-22T02:24:29.960Z,87.60
2018-06-22T02:26:58.407Z,87.00
2018-06-22T02:29:26.803Z,86.50
2018-06-22T02:31:55.351Z,86.80
2018-06-22T02:34:23.819Z,87.20
2018-06-22T02:36:52.275Z,87.10
2018-06-22T02:39:20.719Z,86.90
2018-06-22T02:41:49.241Z,87.20
2018-06-22T02:44:17.721Z,88.00
2018-06-22T02:46:46.209Z,87.50
2018-06-22T02:49:14.809Z,87.90
2018-06-22T02:51:43.232Z,87.70
2018-06-22T02:54:11.652Z,87.90
2018-06-22T02:56:40.286Z,87.90
2018-06-22T02:59:09.273Z,88.20
2018-06-22T03:01:37.679Z,88.50
2018-06-22T03:04:06.142Z,88.60
2018-06-22T03:06:34.545Z,88.00
2018-06-22T03:09:03.053Z,88.70
2018-06-22T03:11:31.465Z,88.70
2018-06-22T03:13:59.961Z,88.70
2018-06-22T03:16:28.352Z,88.80
2018-06-22T03:18:56.791Z,88.80
2018-06-22T03:21:25.199Z,89.10
2018-06-22T03:23:53.614Z,89.40
2018-06-22T03:26:22.107Z,89.80
2018-06-22T03:28:51.085Z,89.80
2018-06-22T03:31:19.508Z,90.00
2018-06-22T03:33:47.992Z,90.00
2018-06-22T03:36:16.415Z,90.00
2018-06-22T03:38:44.833Z,89.80
2018-06-22T03:41:13.273Z,90.00
2018-06-22T03:43:41.720Z,90.00
2018-06-22T03:46:10.280Z,90.20
2018-06-22T03:48:38.689Z,90.30
2018-06-22T03:51:07.276Z,90.50
2018-06-22T03:53:35.779Z,90.60
2018-06-22T03:56:04.177Z,90.60
2018-06-22T03:58:32.629Z,90.50
2018-06-22T04:01:01.658Z,90.50
2018-06-22T04:03:30.941Z,90.60
2018-06-22T04:05:59.349Z,90.20
2018-06-22T04:08:27.762Z,90.50
2018-06-22T04:10:56.186Z,90.20
2018-06-22T04:13:24.591Z,90.30
2018-06-22T04:15:52.995Z,90.10
2018-06-22T04:18:21.456Z,90.20
2018-06-22T04:20:49.852Z,90.20
2018-06-22T04:23:18.270Z,90.20
2018-06-22T04:25:46.648Z,90.40
2018-06-22T04:28:15.116Z,90.40
2018-06-22T04:30:43.545Z,90.40
2018-06-22T04:33:12.100Z,90.50
2018-06-22T04:35:40.530Z,90.50
2018-06-22T04:38:08.927Z,90.20
2018-06-22T04:40:37.442Z,90.30
2018-06-22T04:43:05.842Z,89.90
2018-06-22T04:45:34.329Z,89.90
2018-06-22T04:48:02.729Z,89.00
2018-06-22T04:50:31.136Z,88.80
2018-06-22T04:52:59.540Z,89.80
2018-06-22T04:55:27.968Z,88.00
2018-06-22T04:57:56.379Z,87.30
2018-06-22T05:00:24.820Z,87.00
2018-06-22T05:02:53.440Z,88.60
2018-06-22T05:05:22.962Z,87.90
2018-06-22T05:10:19.590Z,89.60
2018-06-22T05:12:48.064Z,89.00
2018-06-22T05:15:16.539Z,89.30
2018-06-22T05:17:45.018Z,87.00
2018-06-22T05:20:13.418Z,88.20
2018-06-22T05:22:41.939Z,88.70
2018-06-22T05:25:10.418Z,87.80
2018-06-22T05:27:38.962Z,87.20
2018-06-22T05:30:07.600Z,87.40
2018-06-22T05:32:36.158Z,87.60
2018-06-22T05:35:05.956Z,87.50
2018-06-22T05:40:02.593Z,86.60
2018-06-22T05:42:30.976Z,88.70
2018-06-22T05:44:59.408Z,87.70
2018-06-22T05:47:27.810Z,87.10
2018-06-22T05:49:56.363Z,88.00
2018-06-22T05:52:24.756Z,88.00
2018-06-22T05:54:53.192Z,87.10
2018-06-22T05:57:21.693Z,87.90
2018-06-22T05:59:50.344Z,88.30
2018-06-22T06:02:19.556Z,88.10
2018-06-22T06:04:48.024Z,87.90
2018-06-22T06:07:16.443Z,87.80
2018-06-22T06:09:44.851Z,88.70
2018-06-22T06:12:13.332Z,89.40
2018-06-22T06:14:41.852Z,87.50
2018-06-22T06:17:10.268Z,87.90
2018-06-22T06:19:38.696Z,88.80
2018-06-22T06:22:07.275Z,89.90
2018-06-22T06:24:35.708Z,90.00
2018-06-22T06:27:04.123Z,90.20
2018-06-22T06:29:32.540Z,90.30
2018-06-22T06:32:01.024Z,90.40
2018-06-22T06:34:29.438Z,90.50
2018-06-22T06:36:57.880Z,90.50
2018-06-22T06:39:26.311Z,90.40
2018-06-22T06:41:54.880Z,90.30
2018-06-22T06:44:23.315Z,90.20
2018-06-22T06:46:51.803Z,90.40
2018-06-22T06:49:20.539Z,90.20
2018-06-22T06:51:48.985Z,90.00
2018-06-22T06:54:17.453Z,88.70
2018-06-22T06:56:45.996Z,87.00
2018-06-22T06:59:14.431Z,86.00
2018-06-22T07:01:42.847Z,86.10
2018-06-22T07:04:11.429Z,85.60
2018-06-22T07:06:39.808Z,84.70
2018-06-22T07:09:08.801Z,84.30
2018-06-22T07:11:37.311Z,84.00
2018-06-22T07:14:05.971Z,83.60
2018-06-22T07:16:34.403Z,83.30
2018-06-22T07:19:02.832Z,83.60
2018-06-22T07:21:31.292Z,84.20
2018-06-22T07:23:59.782Z,84.10
2018-06-22T07:26:28.474Z,84.50
2018-06-22T07:28:56.935Z,85.10
2018-06-22T07:31:25.393Z,85.00
2018-06-22T07:33:54.309Z,85.60
2018-06-22T07:36:22.812Z,85.70
2018-06-22T07:38:51.292Z,84.80
2018-06-22T07:41:19.719Z,85.20
2018-06-22T07:43:48.167Z,85.20
2018-06-22T07:46:16.649Z,85.40
2018-06-22T07:48:45.082Z,85.40
2018-06-22T07:51:13.559Z,85.10
2018-06-22T07:53:41.996Z,85.80
2018-06-22T07:56:10.521Z,85.40
2018-06-22T07:58:38.977Z,85.20
2018-06-22T08:01:07.530Z,85.10
2018-06-22T08:03:36.011Z,84.80
2018-06-22T08:06:04.443Z,84.90
2018-06-22T08:08:32.859Z,85.20
2018-06-22T08:11:01.274Z,85.50
2018-06-22T08:13:29.699Z,85.00
2018-06-22T08:15:58.110Z,85.20
2018-06-22T08:18:26.551Z,85.60
2018-06-22T08:20:55.034Z,85.80
2018-06-22T08:23:23.446Z,85.50
2018-06-22T08:25:51.896Z,85.30
2018-06-22T08:28:20.403Z,85.50
2018-06-22T08:30:49.744Z,85.80
2018-06-22T08:33:18.206Z,85.60
2018-06-22T08:35:49.478Z,85.50
2018-06-22T08:38:17.961Z,85.80
2018-06-22T08:40:46.509Z,84.70
2018-06-22T08:43:14.923Z,83.90
2018-06-22T08:45:43.318Z,85.00
2018-06-22T08:48:11.724Z,85.90
2018-06-22T08:50:40.132Z,84.20
2018-06-22T08:53:08.548Z,83.80
2018-06-22T08:55:37.026Z,82.60
2018-06-22T08:58:05.640Z,85.90
2018-06-22T09:00:34.056Z,82.30
2018-06-22T09:03:02.451Z,82.80
2018-06-22T09:05:30.861Z,83.00
2018-06-22T09:08:00.722Z,82.70
2018-06-22T09:10:29.120Z,83.20
2018-06-22T09:12:57.524Z,83.20
2018-06-22T09:15:25.936Z,83.40
2018-06-22T09:17:54.350Z,83.50
2018-06-22T09:20:22.768Z,83.90
2018-06-22T09:22:51.164Z,83.00
2018-06-22T09:25:19.600Z,82.80
2018-06-22T09:27:48.048Z,83.40
2018-06-22T09:32:44.656Z,83.10
2018-06-22T09:35:13.070Z,84.30
2018-06-22T09:37:41.500Z,83.50
2018-06-22T09:40:09.903Z,84.20
2018-06-22T09:42:38.420Z,82.30
2018-06-22T09:45:06.815Z,81.30
2018-06-22T09:47:35.215Z,81.30
2018-06-22T09:50:03.706Z,81.10
2018-06-22T09:52:32.120Z,80.80
2018-06-22T09:55:00.585Z,80.90
2018-06-22T09:57:28.976Z,82.10
2018-06-22T09:59:57.452Z,81.10
2018-06-22T10:02:25.912Z,80.30
2018-06-22T10:04:54.338Z,80.20
2018-06-22T10:07:23.398Z,80.00
2018-06-22T10:09:51.854Z,79.40
2018-06-22T10:12:20.268Z,80.00
2018-06-22T10:14:48.819Z,79.90
2018-06-22T10:17:17.211Z,79.80
2018-06-22T10:19:45.693Z,81.30
2018-06-22T10:22:14.967Z,80.80
2018-06-22T10:24:43.575Z,81.80
2018-06-22T10:27:12.184Z,81.80
2018-06-22T10:29:40.629Z,82.30
2018-06-22T10:32:10.109Z,82.00
2018-06-22T10:37:06.650Z,81.20
2018-06-22T10:39:35.430Z,81.90
2018-06-22T10:42:04.000Z,82.10
2018-06-22T10:44:32.490Z,81.90
2018-06-22T10:47:01.154Z,81.50
2018-06-22T10:49:29.650Z,81.70
2018-06-22T10:51:58.300Z,80.00
2018-06-22T10:54:26.805Z,80.40
2018-06-22T10:56:55.303Z,79.40
2018-06-22T10:59:23.906Z,78.90
2018-06-22T11:01:52.353Z,77.80
2018-06-22T11:04:21.100Z,77.30
2018-06-22T11:06:49.522Z,75.70
2018-06-22T11:09:17.984Z,72.60
2018-06-22T11:11:46.947Z,70.60
2018-06-22T11:14:15.434Z,69.30
2018-06-22T11:16:44.827Z,69.40
2018-06-22T11:19:13.296Z,70.30
2018-06-22T11:21:41.913Z,71.40
2018-06-22T11:24:10.412Z,72.70
2018-06-22T11:26:39.070Z,72.10
2018-06-22T11:29:07.547Z,73.10
2018-06-22T11:31:35.956Z,73.90
2018-06-22T11:34:04.507Z,74.30
2018-06-22T11:36:32.936Z,75.00
2018-06-22T11:39:01.450Z,77.00
2018-06-22T11:41:29.857Z,76.00
2018-06-22T11:43:58.304Z,77.60
2018-06-22T11:46:26.709Z,76.50
2018-06-22T11:48:55.157Z,76.50
2018-06-22T11:53:53.299Z,75.10
2018-06-22T11:56:21.861Z,73.70
2018-06-22T11:58:50.348Z,72.90
2018-06-22T12:01:19.129Z,73.00
2018-06-22T12:03:48.659Z,73.50
2018-06-22T12:06:17.141Z,74.70
2018-06-22T12:08:45.551Z,76.90
2018-06-22T12:13:42.896Z,84.90
2018-06-22T12:16:11.799Z,86.30
2018-06-22T12:18:40.831Z,86.70
2018-06-22T12:23:37.857Z,84.90
2018-06-22T12:26:06.705Z,84.50
2018-06-22T12:28:35.417Z,82.30
2018-06-22T12:31:03.959Z,81.10
2018-06-22T12:36:00.671Z,77.70
2018-06-22T12:38:29.307Z,78.00
2018-06-22T12:40:57.759Z,77.40
2018-06-22T12:43:26.251Z,75.90
2018-06-22T12:45:54.843Z,77.60
2018-06-22T12:48:23.266Z,76.90
2018-06-22T12:50:51.683Z,78.70
2018-06-22T12:53:20.221Z,78.90
2018-06-22T12:55:48.674Z,75.90
2018-06-22T12:58:17.111Z,75.70
2018-06-22T13:03:13.684Z,75.60
2018-06-22T13:05:42.139Z,75.60
2018-06-22T13:08:10.694Z,76.80
2018-06-22T13:10:39.092Z,78.20
2018-06-22T13:13:07.680Z,77.40
2018-06-22T13:15:36.129Z,78.40
2018-06-22T13:18:04.774Z,78.90
2018-06-22T13:20:33.214Z,79.40
2018-06-22T13:23:01.653Z,79.00
2018-06-22T13:25:30.137Z,78.80
2018-06-22T13:27:58.652Z,81.00
2018-06-22T13:30:27.152Z,80.80
2018-06-22T13:32:55.623Z,81.10
2018-06-22T13:35:24.041Z,81.40
2018-06-22T13:37:52.588Z,81.70
2018-06-22T13:40:21.000Z,81.80
2018-06-22T13:45:17.760Z,80.10
2018-06-22T13:47:46.256Z,78.60
2018-06-22T13:50:14.912Z,78.10
2018-06-22T13:52:43.372Z,77.70
2018-06-22T13:55:11.942Z,76.60
2018-06-22T13:57:40.426Z,76.70
2018-06-22T14:00:08.925Z,76.70
2018-06-22T14:02:37.649Z,76.80
2018-06-22T14:05:11.556Z,76.40
2018-06-22T14:07:40.032Z,75.60
2018-06-22T14:10:08.795Z,77.10
2018-06-22T14:12:37.248Z,76.90
2018-06-22T14:15:05.894Z,76.70
2018-06-22T14:17:34.300Z,78.00
2018-06-22T14:20:02.821Z,78.30
2018-06-22T14:22:31.271Z,77.50
2018-06-22T14:25:00.703Z,77.90
2018-06-22T14:27:29.183Z,77.40
2018-06-22T14:29:58.286Z,77.40
2018-06-22T14:32:28.563Z,76.50
2018-06-22T14:34:57.741Z,76.60
2018-06-22T14:37:26.602Z,75.50
2018-06-22T14:39:55.189Z,75.60
2018-06-22T14:42:23.651Z,74.80
2018-06-22T14:44:53.433Z,75.20
2018-06-22T14:47:22.147Z,74.10
2018-06-22T14:49:50.595Z,75.20
2018-06-22T14:52:19.137Z,74.60
2018-06-22T14:54:52.998Z,73.90
2018-06-22T14:57:26.889Z,72.30
2018-06-22T15:00:00.777Z,72.70
2018-06-22T15:02:34.629Z,73.00
2018-06-22T15:05:08.360Z,73.10
2018-06-22T15:07:42.131Z,73.60
2018-06-22T15:10:10.789Z,73.30
2018-06-22T15:12:40.200Z,73.60
2018-06-22T15:15:08.684Z,74.30
2018-06-22T15:17:42.545Z,72.50
2018-06-22T15:20:11.150Z,71.20
2018-06-22T15:22:39.750Z,71.20
2018-06-22T15:25:08.512Z,72.70
2018-06-22T15:27:38.433Z,74.00
2018-06-22T15:30:06.913Z,72.30
2018-06-22T15:32:35.605Z,73.10
2018-06-22T15:35:09.714Z,72.10
2018-06-22T15:37:43.485Z,72.60
2018-06-22T15:40:17.256Z,73.30
2018-06-22T15:42:51.324Z,71.80
2018-06-22T15:45:27.546Z,69.90
2018-06-22T15:48:02.170Z,69.80
2018-06-22T15:50:36.000Z,70.60
2018-06-22T15:53:10.028Z,70.00
2018-06-22T15:55:42.563Z,68.60
2018-06-22T15:58:11.220Z,70.90
2018-06-22T16:00:39.986Z,70.00
2018-06-22T16:03:14.828Z,69.30
2018-06-22T16:05:43.356Z,69.90
2018-06-22T16:08:11.923Z,69.80
2018-06-22T16:10:40.444Z,69.80
2018-06-22T16:13:14.733Z,70.30
2018-06-22T16:15:48.567Z,70.10
2018-06-22T16:18:22.343Z,70.90
2018-06-22T16:20:56.129Z,71.50
2018-06-22T16:23:30.093Z,72.10
2018-06-22T16:26:03.837Z,72.40
2018-06-22T16:28:32.287Z,73.20
2018-06-22T16:31:00.877Z,74.40
2018-06-22T16:33:29.334Z,75.40
2018-06-22T16:35:57.904Z,74.10
2018-06-22T16:38:26.482Z,74.40
2018-06-22T16:43:23.042Z,75.50
2018-06-22T16:45:51.653Z,75.60
2018-06-22T16:48:20.131Z,76.10
2018-06-22T16:50:48.547Z,77.00
2018-06-22T16:53:18.460Z,77.70
2018-06-22T16:55:46.919Z,78.30
2018-06-22T16:58:20.823Z,77.50
2018-06-22T17:00:49.241Z,76.50
2018-06-22T17:03:17.662Z,77.10
2018-06-22T17:05:46.129Z,78.20
2018-06-22T17:09:18.646Z,78.50
2018-06-22T17:12:55.213Z,78.30
2018-06-22T17:15:28.883Z,78.10
2018-06-22T17:18:02.666Z,78.50
2018-06-22T17:20:31.319Z,78.50
2018-06-22T17:22:59.790Z,78.20
2018-06-22T17:25:28.880Z,78.00
2018-06-22T17:27:57.692Z,77.70
2018-06-22T17:30:26.168Z,78.00
2018-06-22T17:32:54.560Z,78.20
2018-06-22T17:35:23.061Z,77.90
2018-06-22T17:37:51.528Z,77.80
2018-06-22T17:40:20.056Z,77.70
2018-06-22T17:42:48.512Z,77.30
2018-06-22T17:45:17.951Z,75.70
2018-06-22T17:47:46.433Z,76.40
2018-06-22T17:50:20.148Z,77.10
2018-06-22T17:52:48.672Z,77.20
2018-06-22T17:55:17.148Z,77.90
2018-06-22T17:57:45.560Z,77.80
2018-06-22T18:00:19.337Z,78.00
2018-06-22T18:02:54.249Z,78.30
2018-06-22T18:05:28.069Z,78.60
2018-06-22T18:07:57.390Z,78.80
2018-06-22T18:10:31.249Z,78.70
2018-06-22T18:13:00.612Z,78.50
2018-06-22T18:15:29.793Z,78.80
2018-06-22T18:18:07.090Z,78.80
2018-06-22T18:20:39.925Z,78.70
2018-06-22T18:23:09.049Z,78.10
2018-06-22T18:25:37.896Z,78.30
2018-06-22T18:28:06.451Z,78.60
2018-06-22T18:30:35.017Z,79.00
2018-06-22T18:33:03.840Z,79.30
2018-06-22T18:35:32.196Z,79.00
2018-06-22T18:38:00.638Z,79.30
2018-06-22T18:40:29.079Z,79.20
2018-06-22T18:42:57.520Z,78.80
2018-06-22T18:45:25.949Z,79.70
2018-06-22T18:47:55.485Z,80.00
2018-06-22T18:50:24.892Z,80.60
2018-06-22T18:52:58.898Z,82.00
2018-06-22T18:55:32.786Z,81.00
2018-06-22T18:58:06.623Z,81.10
2018-06-22T19:00:40.394Z,81.40
2018-06-22T19:03:14.213Z,81.70
2018-06-22T19:05:43.752Z,81.90
2018-06-22T19:08:12.500Z,82.40
2018-06-22T19:10:40.967Z,82.10
2018-06-22T19:13:10.369Z,82.30
2018-06-22T19:15:39.019Z,82.60
2018-06-22T19:18:07.449Z,82.80
2018-06-22T19:20:36.031Z,83.20
2018-06-22T19:23:05.283Z,83.50
2018-06-22T19:25:33.717Z,84.00
2018-06-22T19:28:02.381Z,84.40
2018-06-22T19:30:30.878Z,85.10
2018-06-22T19:33:00.423Z,85.40
2018-06-22T19:35:28.954Z,85.70
2018-06-22T19:37:57.447Z,85.90
2018-06-22T19:40:25.903Z,85.90
2018-06-22T19:42:54.345Z,86.00
2018-06-22T19:45:28.274Z,85.90
2018-06-22T19:48:02.273Z,86.20
2018-06-22T19:50:36.100Z,86.20
2018-06-22T19:53:10.051Z,87.10
2018-06-22T19:55:38.538Z,86.60
2018-06-22T19:58:07.216Z,86.50
2018-06-22T20:00:35.674Z,86.70
2018-06-22T20:03:04.270Z,86.70
2018-06-22T20:05:32.893Z,86.80
2018-06-22T20:08:01.479Z,87.10
2018-06-22T20:10:29.921Z,87.10
2018-06-22T20:12:58.410Z,87.00
2018-06-22T20:17:55.801Z,87.60
2018-06-22T20:20:24.402Z,87.90
2018-06-22T20:22:53.503Z,87.80
2018-06-22T20:25:27.834Z,88.20
2018-06-22T20:27:56.360Z,88.50
2018-06-22T20:32:53.072Z,89.10
2018-06-22T20:35:26.731Z,88.90
2018-06-22T20:38:00.443Z,89.10
2018-06-22T20:40:34.189Z,89.50
2018-06-22T20:44:06.760Z,89.70
2018-06-22T20:46:40.757Z,90.00
2018-06-22T20:49:14.604Z,90.20
2018-06-22T20:51:44.752Z,90.40
2018-06-22T20:54:14.048Z,90.50
2018-06-22T20:56:42.598Z,90.50
2018-06-22T20:59:11.028Z,90.60
2018-06-22T21:01:39.526Z,90.60
2018-06-22T21:04:08.014Z,90.80
2018-06-22T21:06:36.626Z,90.70
2018-06-22T21:09:07.230Z,90.70
2018-06-22T21:11:35.632Z,90.80
2018-06-22T21:14:04.283Z,90.80
2018-06-22T21:16:32.733Z,90.80
2018-06-22T21:19:01.241Z,90.90
2018-06-22T21:21:35.130Z,91.00
2018-06-22T21:24:03.614Z,91.00
2018-06-22T21:26:32.147Z,91.00
2018-06-22T21:29:06.048Z,91.10
2018-06-22T21:31:39.905Z,90.90
2018-06-22T21:34:13.856Z,91.10
2018-06-22T21:36:47.708Z,91.10
2018-06-22T21:39:16.201Z,91.30
2018-06-22T21:41:44.646Z,91.40
2018-06-22T21:44:13.345Z,91.70
2018-06-22T21:46:41.850Z,91.80
2018-06-22T21:51:38.609Z,92.30
2018-06-22T21:54:07.093Z,92.10
2018-06-22T21:56:35.549Z,92.20
2018-06-22T21:59:04.160Z,92.20
2018-06-22T22:01:32.625Z,92.30
2018-06-22T22:04:01.155Z,92.20
2018-06-22T22:06:29.705Z,92.20
2018-06-22T22:08:58.381Z,92.30
2018-06-22T22:11:32.076Z,92.40
2018-06-22T22:14:00.487Z,92.40
2018-06-22T22:16:28.966Z,92.40
2018-06-22T22:18:57.450Z,92.50
2018-06-22T22:21:26.430Z,92.60
2018-06-22T22:23:55.058Z,92.70
2018-06-22T22:26:23.515Z,92.70
2018-06-22T22:28:52.090Z,92.80
2018-06-22T22:31:20.572Z,93.00
2018-06-22T22:33:49.123Z,93.00
2018-06-22T22:36:17.739Z,93.00
2018-06-22T22:38:46.325Z,93.00
2018-06-22T22:41:14.725Z,93.20
2018-06-22T22:43:43.193Z,93.10
2018-06-22T22:46:11.815Z,93.10
2018-06-22T22:48:40.401Z,93.00
2018-06-22T22:51:08.874Z,93.10
2018-06-22T22:53:37.307Z,93.10
2018-06-22T22:56:05.949Z,93.30
2018-06-22T22:58:34.474Z,93.30
2018-06-22T23:01:02.879Z,93.20
2018-06-22T23:03:31.507Z,93.20
2018-06-22T23:05:59.989Z,93.30
2018-06-22T23:08:28.777Z,93.40
2018-06-22T23:10:57.222Z,93.50
2018-06-22T23:13:25.803Z,93.60
2018-06-22T23:15:54.275Z,93.50
2018-06-22T23:18:22.714Z,93.50
2018-06-22T23:20:51.375Z,93.60
2018-06-22T23:23:30.708Z,93.70
2018-06-22T23:25:59.319Z,93.60
2018-06-22T23:28:27.921Z,93.60
2018-06-22T23:30:56.446Z,93.60
2018-06-22T23:33:25.034Z,93.70
2018-06-22T23:35:53.537Z,94.00
2018-06-22T23:38:21.946Z,93.60
2018-06-22T23:40:50.417Z,93.60
2018-06-22T23:43:19.166Z,93.80
2018-06-22T23:45:47.996Z,93.60
2018-06-22T23:48:16.476Z,93.80
2018-06-22T23:50:44.926Z,94.00
2018-06-22T23:53:13.408Z,94.00
2018-06-22T23:55:42.200Z,94.00
2018-06-22T23:58:10.870Z,94.00
